BLQ weather

Bologna Guglielmo Marconi Airport
Bologna, Emilia-Romagna, Italy

Public forecast

Using degrees Celsius for public forecast. Weather courtesy of forecast.io.

METAR (pilot weather report)

Retrieved 2019/02/18 17:50 UTC (15 minutes ago):

LIPE 181750Z 07002KT CAVOK 08/03 Q1022

TAF (pilot weather forecast)

Retrieved 2019/02/18 18:00 UTC (5 minutes ago):

TAF LIPE 181700Z 1818/1918 VRB05KT CAVOK TEMPO 1902/1908 1200 BR